Time;durP1;ratioP1;P1;durP2;ratioP2;P2;SDS_P1;SDS_P2;PMS_P1;PMS_P2;Temp;Humidity;BMP_temperature;BMP_pressure;BME280_temperature;BME280_humidity;BME280_pressure;Samples;Min_cycle;Max_cycle;Signal;HPM_P1;HPM_P2
2022/04/18 00:01:22;;;;;;;17.40;4.03;;;35.50;16.40;;;;;;5068114;28;20094;-53
2022/04/18 00:03:48;;;;;;;21.85;5.70;;;35.50;17.10;;;;;;5050909;28;20538;-59
2022/04/18 00:06:15;;;;;;;9.13;3.25;;;35.60;16.60;;;;;;5067744;28;20045;-55
2022/04/18 00:08:41;;;;;;;13.20;3.08;;;35.60;17.10;;;;;;5092637;28;20045;-55
2022/04/18 00:11:07;;;;;;;11.05;4.28;;;35.60;16.60;;;;;;5045294;28;20092;-56
2022/04/18 00:13:34;;;;;;;10.45;3.05;;;35.50;15.90;;;;;;5084216;28;20097;-54
2022/04/18 00:16:00;;;;;;;13.05;2.60;;;35.60;16.70;;;;;;5068641;28;20040;-54
2022/04/18 00:18:26;;;;;;;14.27;2.70;;;35.60;16.70;;;;;;5084923;28;20052;-56
2022/04/18 00:20:53;;;;;;;20.88;3.00;;;35.50;16.80;;;;;;5069000;28;20045;-57
2022/04/18 00:23:19;;;;;;;10.43;2.60;;;35.40;17.50;;;;;;5084780;28;20447;-56
2022/04/18 00:25:45;;;;;;;12.38;2.10;;;35.50;18.80;;;;;;5076219;28;20037;-55
2022/04/18 00:28:12;;;;;;;14.95;2.40;;;35.40;20.20;;;;;;5032868;28;20073;-56
2022/04/18 00:30:39;;;;;;;13.85;2.58;;;35.40;20.70;;;;;;5067390;28;20032;-55
2022/04/18 00:33:06;;;;;;;14.23;2.53;;;35.20;20.70;;;;;;5084240;28;20054;-56
2022/04/18 00:35:33;;;;;;;14.43;2.83;;;35.10;21.00;;;;;;5085406;28;20051;-51
2022/04/18 00:38:00;;;;;;;35.97;4.65;;;35.10;20.90;;;;;;5084513;28;20044;-55
2022/04/18 00:40:26;;;;;;;15.45;3.03;;;35.10;21.00;;;;;;5084179;28;20407;-55
2022/04/18 00:43:04;;;;;;;15.25;2.70;;;35.10;20.70;;;;;;5050822;28;20040;-53
2022/04/18 00:45:31;;;;;;;18.38;2.75;;;35.10;20.60;;;;;;5067491;28;20095;-55
2022/04/18 00:47:57;;;;;;;18.48;2.67;;;35.10;19.60;;;;;;5070599;28;20050;-53
2022/04/18 00:50:26;;;;;;;15.05;3.30;;;34.80;18.70;;;;;;5073920;28;20522;-52
2022/04/18 00:52:54;;;;;;;12.52;2.78;;;34.60;20.10;;;;;;5055793;28;20061;-55
2022/04/18 00:55:22;;;;;;;28.92;2.90;;;34.50;19.60;;;;;;5070415;28;20056;-53
2022/04/18 00:57:49;;;;;;;15.02;2.50;;;34.40;20.80;;;;;;5055166;28;20042;-53
2022/04/18 01:00:16;;;;;;;19.52;3.35;;;34.20;20.30;;;;;;5086224;28;20046;-55
2022/04/18 01:02:42;;;;;;;16.48;2.72;;;34.10;20.70;;;;;;5074920;28;20041;-58
2022/04/18 01:05:09;;;;;;;14.38;3.15;;;34.00;20.20;;;;;;5072024;28;20069;-55
2022/04/18 01:07:36;;;;;;;13.20;3.38;;;33.90;20.20;;;;;;5038470;28;20143;-54
2022/04/18 01:10:07;;;;;;;12.75;2.92;;;33.80;20.80;;;;;;5082927;28;20094;-57
2022/04/18 01:12:38;;;;;;;19.05;3.28;;;33.70;21.40;;;;;;5055087;28;20051;-54
2022/04/18 01:15:05;;;;;;;13.52;3.20;;;33.70;21.50;;;;;;5071577;28;20412;-53
2022/04/18 01:17:32;;;;;;;15.27;2.88;;;33.50;21.80;;;;;;5088573;28;20053;-59
2022/04/18 01:19:58;;;;;;;15.00;2.65;;;33.20;22.20;;;;;;5055168;28;20501;-55
2022/04/18 01:22:24;;;;;;;12.18;3.13;;;33.10;22.20;;;;;;5088633;28;20521;-52
2022/04/18 01:30:20;;;;;;;18.35;3.15;;;32.60;23.10;;;;;;5066992;28;20063;-55
2022/04/18 01:32:47;;;;;;;28.38;3.08;;;32.40;23.70;;;;;;5087601;28;20501;-53
2022/04/18 01:35:13;;;;;;;13.50;3.13;;;32.40;22.30;;;;;;5069979;28;20176;-55
2022/04/18 01:37:40;;;;;;;11.90;3.13;;;32.20;22.50;;;;;;5068016;28;20054;-53
2022/04/18 01:40:07;;;;;;;19.05;3.00;;;32.00;22.90;;;;;;5070107;28;20148;-53
2022/04/18 01:42:33;;;;;;;13.00;3.30;;;31.90;23.10;;;;;;5088285;28;20134;-55
2022/04/18 01:45:00;;;;;;;17.90;3.83;;;31.60;23.40;;;;;;5088030;28;20056;-53
2022/04/18 01:47:27;;;;;;;32.15;4.63;;;31.50;23.70;;;;;;5087689;28;20120;-56
2022/04/18 01:49:53;;;;;;;16.90;3.50;;;31.40;24.70;;;;;;5070266;28;20067;-55
2022/04/18 01:52:20;;;;;;;18.83;3.55;;;31.30;24.50;;;;;;5071648;28;20058;-59
2022/04/18 01:54:46;;;;;;;41.80;15.13;;;31.20;24.70;;;;;;5087498;28;20071;-54
2022/04/18 01:57:12;;;;;;;28.88;9.93;;;31.10;24.70;;;;;;5054375;28;20061;-52
2022/04/18 01:59:42;;;;;;;39.67;27.55;;;30.90;24.70;;;;;;5053972;28;20513;-55
2022/04/18 02:02:08;;;;;;;30.08;12.88;;;30.70;24.90;;;;;;5086865;28;20081;-54
2022/04/18 02:04:35;;;;;;;25.55;8.02;;;30.60;24.90;;;;;;5070908;28;20531;-55
2022/04/18 02:07:02;;;;;;;26.27;6.75;;;30.40;24.80;;;;;;5087570;28;20136;-54
2022/04/18 02:09:29;;;;;;;14.75;4.70;;;30.30;25.20;;;;;;5055191;28;20172;-52
2022/04/18 02:11:55;;;;;;;24.60;7.43;;;30.20;25.40;;;;;;5087595;28;20084;-58
2022/04/18 02:14:21;;;;;;;35.72;9.85;;;30.00;25.30;;;;;;5071515;28;20130;-54
2022/04/18 02:16:48;;;;;;;38.17;7.57;;;29.80;25.50;;;;;;5088038;28;20079;-53
2022/04/18 02:19:14;;;;;;;46.88;20.48;;;29.70;25.80;;;;;;5087955;28;20069;-58
2022/04/18 02:21:41;;;;;;;49.92;19.40;;;29.60;26.20;;;;;;5088651;28;20090;-54
2022/04/18 02:24:07;;;;;;;53.65;29.85;;;29.50;26.20;;;;;;5070739;28;20072;-53
2022/04/18 02:26:34;;;;;;;38.22;20.42;;;29.40;26.20;;;;;;5054057;28;20088;-56
2022/04/18 02:29:00;;;;;;;62.92;26.85;;;29.20;26.40;;;;;;5053828;28;20092;-53
2022/04/18 02:31:27;;;;;;;37.30;18.42;;;29.10;26.90;;;;;;5087211;28;20104;-52
2022/04/18 02:33:53;;;;;;;41.58;14.50;;;29.00;27.00;;;;;;5053754;28;20104;-56
2022/04/18 02:36:19;;;;;;;27.60;7.95;;;28.80;27.20;;;;;;5092641;28;20062;-57
2022/04/18 02:38:46;;;;;;;27.75;6.70;;;28.70;27.50;;;;;;5037214;28;20066;-54
2022/04/18 02:41:12;;;;;;;44.67;11.90;;;28.60;27.70;;;;;;5071815;28;20129;-57
2022/04/18 02:43:38;;;;;;;29.92;9.07;;;28.60;28.20;;;;;;5070785;28;20147;-55
2022/04/18 02:46:05;;;;;;;35.72;9.52;;;28.50;28.30;;;;;;5071419;28;20087;-53
2022/04/18 02:48:31;;;;;;;37.45;8.55;;;28.40;28.50;;;;;;5036627;28;20522;-57
2022/04/18 02:50:58;;;;;;;39.47;7.93;;;28.30;28.50;;;;;;5070975;28;20484;-56
2022/04/18 02:53:24;;;;;;;35.95;8.23;;;28.20;29.10;;;;;;5053083;28;20573;-58
2022/04/18 02:55:50;;;;;;;26.25;7.75;;;28.20;29.00;;;;;;5053052;28;20095;-54
2022/04/18 02:58:17;;;;;;;20.80;7.53;;;28.00;28.80;;;;;;5052729;28;20213;-56
2022/04/18 03:00:43;;;;;;;32.65;7.97;;;27.90;28.70;;;;;;5052728;28;20082;-53
2022/04/18 03:03:10;;;;;;;29.92;8.88;;;27.80;29.20;;;;;;5051828;28;20079;-53
2022/04/18 03:05:36;;;;;;;36.83;8.80;;;27.70;29.20;;;;;;5053108;28;20165;-53
2022/04/18 03:08:02;;;;;;;33.78;7.35;;;27.60;29.20;;;;;;5038091;28;20071;-53
2022/04/18 03:11:14;;;;;;;40.30;6.90;;;27.50;29.50;;;;;;5082182;28;20101;-55
2022/04/18 03:13:15;;;;;;;33.83;6.47;;;27.50;29.90;;;;;;5063154;28;20183;-53
2022/04/18 03:15:42;;;;;;;28.55;6.35;;;27.30;30.20;;;;;;5086348;28;20524;-55
2022/04/18 03:18:08;;;;;;;26.13;5.97;;;27.30;30.40;;;;;;5069496;28;20081;-57
2022/04/18 03:20:34;;;;;;;27.27;5.15;;;27.20;30.50;;;;;;5053219;28;20436;-54
2022/04/18 03:23:01;;;;;;;15.63;4.82;;;27.10;30.80;;;;;;5069235;28;20087;-54
2022/04/18 03:25:27;;;;;;;31.48;5.05;;;27.10;31.20;;;;;;5086036;28;20076;-55
2022/04/18 03:27:53;;;;;;;21.67;5.18;;;27.00;31.60;;;;;;5085816;28;20594;-53
2022/04/18 03:30:20;;;;;;;23.88;5.20;;;26.90;31.60;;;;;;5085936;28;20106;-54
2022/04/18 03:32:46;;;;;;;20.67;4.80;;;26.80;31.50;;;;;;5068753;28;20092;-55
2022/04/18 03:35:12;;;;;;;24.95;5.18;;;26.70;31.70;;;;;;5068953;28;20535;-54
2022/04/18 03:40:23;;;;;;;26.15;6.47;;;26.60;32.20;;;;;;5069470;28;20544;-53
2022/04/18 03:42:50;;;;;;;29.48;6.50;;;26.50;32.00;;;;;;5068679;28;20076;-55
2022/04/18 03:45:16;;;;;;;34.47;8.85;;;26.50;32.20;;;;;;5052135;28;20080;-53
2022/04/18 03:47:42;;;;;;;36.92;8.40;;;26.40;32.40;;;;;;5050917;28;20102;-55
2022/04/18 03:50:09;;;;;;;37.67;9.45;;;26.30;32.60;;;;;;5085447;28;20082;-53
2022/04/18 03:52:36;;;;;;;32.45;8.50;;;26.20;32.70;;;;;;5070698;28;20149;-54
2022/04/18 03:55:02;;;;;;;31.15;8.90;;;26.20;33.00;;;;;;5085350;28;20580;-51
2022/04/18 03:57:29;;;;;;;34.42;9.55;;;26.10;33.10;;;;;;5035740;28;20083;-52
2022/04/18 03:59:55;;;;;;;38.50;9.52;;;26.00;33.20;;;;;;5035783;28;20076;-53
2022/04/18 04:02:21;;;;;;;39.33;10.13;;;26.00;33.50;;;;;;5070010;28;20083;-54
2022/04/18 04:04:48;;;;;;;39.60;11.38;;;26.00;34.20;;;;;;5035267;28;20770;-55
2022/04/18 04:07:14;;;;;;;40.65;9.40;;;26.00;34.10;;;;;;5070473;28;20076;-54
2022/04/18 04:09:40;;;;;;;51.90;9.35;;;25.90;34.20;;;;;;5053146;28;20278;-53
2022/04/18 04:12:07;;;;;;;38.55;8.30;;;25.90;34.30;;;;;;5085170;28;20118;-53
2022/04/18 04:14:34;;;;;;;30.02;8.93;;;25.80;34.50;;;;;;5068814;28;20136;-53
2022/04/18 04:17:01;;;;;;;29.42;8.23;;;25.80;34.70;;;;;;5052409;28;20070;-54
2022/04/18 04:19:27;;;;;;;33.15;8.10;;;25.70;34.80;;;;;;5052113;28;20079;-54
2022/04/18 04:21:54;;;;;;;49.90;8.82;;;25.60;34.90;;;;;;5086426;28;20063;-61
2022/04/18 04:24:20;;;;;;;35.13;8.40;;;25.60;35.00;;;;;;5089415;28;20087;-57
2022/04/18 04:26:47;;;;;;;37.60;8.35;;;25.50;35.10;;;;;;5089354;28;20490;-55
2022/04/18 04:29:15;;;;;;;34.65;9.40;;;25.40;35.50;;;;;;5072340;28;20471;-55
2022/04/18 04:31:41;;;;;;;36.95;9.45;;;25.40;36.20;;;;;;5089113;28;20087;-57
2022/04/18 04:34:10;;;;;;;39.35;8.65;;;25.40;35.80;;;;;;5072020;28;20121;-58
2022/04/18 04:36:37;;;;;;;42.70;10.20;;;25.30;35.80;;;;;;5084978;28;20177;-53
2022/04/18 04:39:03;;;;;;;43.78;9.60;;;25.30;36.70;;;;;;5073621;28;20452;-56
2022/04/18 04:41:29;;;;;;;36.95;10.32;;;25.30;36.30;;;;;;5089294;28;20071;-54
2022/04/18 04:43:56;;;;;;;43.45;9.82;;;25.20;36.20;;;;;;5089067;28;20096;-53
2022/04/18 04:46:22;;;;;;;41.97;11.23;;;25.10;36.20;;;;;;5055786;28;20159;-57
2022/04/18 04:48:49;;;;;;;44.20;10.85;;;25.10;37.10;;;;;;5088786;28;20094;-57
2022/04/18 04:51:15;;;;;;;46.20;11.95;;;25.10;36.60;;;;;;5039994;28;20076;-58
2022/04/18 04:53:41;;;;;;;51.85;12.23;;;25.00;36.80;;;;;;5072099;28;20182;-56
2022/04/18 04:56:08;;;;;;;46.63;12.68;;;24.90;37.10;;;;;;5088933;28;20068;-52
2022/04/18 04:58:34;;;;;;;51.05;12.75;;;24.90;37.10;;;;;;5072276;28;20079;-55
2022/04/18 05:01:01;;;;;;;57.92;13.02;;;24.80;37.00;;;;;;5055305;28;20078;-55
2022/04/18 05:03:27;;;;;;;51.05;12.77;;;24.80;37.00;;;;;;5088671;28;20073;-56
2022/04/18 05:05:54;;;;;;;60.30;14.70;;;24.80;37.40;;;;;;5055259;28;20449;-55
2022/04/18 05:08:20;;;;;;;57.30;14.88;;;24.80;37.50;;;;;;5077270;28;20409;-55
2022/04/18 05:10:47;;;;;;;51.50;13.20;;;24.70;37.70;;;;;;5051666;28;20118;-56
2022/04/18 05:13:14;;;;;;;51.55;13.55;;;24.70;37.70;;;;;;5054957;28;20080;-54
2022/04/18 05:15:43;;;;;;;57.78;14.32;;;24.60;37.60;;;;;;5088892;28;20537;-54
2022/04/18 05:18:10;;;;;;;50.85;13.65;;;24.60;38.10;;;;;;5091420;28;20137;-58
2022/04/18 05:20:36;;;;;;;51.03;14.82;;;24.60;38.30;;;;;;5056870;28;20075;-58
2022/04/18 05:23:03;;;;;;;58.53;16.05;;;24.50;38.10;;;;;;5073362;28;20093;-54
2022/04/18 05:25:30;;;;;;;56.47;16.58;;;24.50;38.60;;;;;;5088433;28;20072;-54
2022/04/18 05:27:57;;;;;;;58.67;17.10;;;24.50;38.70;;;;;;5072388;28;20072;-57
2022/04/18 05:30:24;;;;;;;52.97;17.50;;;24.40;38.70;;;;;;5087506;28;20092;-57
2022/04/18 05:32:50;;;;;;;88.25;17.35;;;24.30;38.20;;;;;;5071262;28;20072;-57
2022/04/18 05:35:17;;;;;;;113.82;20.23;;;24.30;39.00;;;;;;5085493;28;20186;-58
2022/04/18 05:37:43;;;;;;;65.35;17.05;;;24.20;39.10;;;;;;5070478;28;20064;-58
2022/04/18 05:40:10;;;;;;;102.93;19.90;;;24.30;39.40;;;;;;5054273;28;20697;-54
2022/04/18 05:42:37;;;;;;;80.40;18.23;;;;;;;;;;5054226;28;20092;-55
2022/04/18 05:45:07;;;;;;;68.65;18.63;;;24.10;39.00;;;;;;5072491;28;20437;-54
2022/04/18 05:47:33;;;;;;;81.32;19.85;;;24.10;39.40;;;;;;5069762;28;20074;-56
2022/04/18 05:50:00;;;;;;;75.32;19.65;;;24.10;39.70;;;;;;5071652;28;20079;-54
2022/04/18 05:52:26;;;;;;;71.82;19.02;;;24.10;40.30;;;;;;5086629;28;20561;-53
2022/04/18 05:54:52;;;;;;;91.15;20.25;;;24.00;40.00;;;;;;5071705;28;20092;-55
2022/04/18 05:57:21;;;;;;;93.53;34.08;;;24.00;40.30;;;;;;5053787;28;20103;-56
2022/04/18 05:59:48;;;;;;;78.53;29.08;;;23.90;39.90;;;;;;5053878;28;20471;-54
2022/04/18 06:02:15;;;;;;;97.03;31.85;;;23.90;39.90;;;;;;5070091;28;20095;-58
2022/04/18 06:04:42;;;;;;;78.60;24.30;;;23.80;40.10;;;;;;5071283;28;20492;-54
2022/04/18 06:07:08;;;;;;;70.38;19.70;;;23.80;40.20;;;;;;5071259;28;20543;-55
2022/04/18 06:09:34;;;;;;;76.97;20.38;;;23.70;40.20;;;;;;5078038;28;20544;-54
2022/04/18 06:12:01;;;;;;;74.40;18.13;;;23.70;40.30;;;;;;5086645;28;20569;-53
2022/04/18 06:14:28;;;;;;;64.07;18.38;;;23.70;40.60;;;;;;5052754;28;20543;-55
2022/04/18 06:16:54;;;;;;;83.35;19.30;;;23.60;40.50;;;;;;5087299;28;20106;-59
2022/04/18 06:19:21;;;;;;;93.03;20.42;;;23.60;40.70;;;;;;5052947;28;20776;-56
2022/04/18 06:21:50;;;;;;;65.07;18.60;;;23.60;40.90;;;;;;5087501;28;20080;-57
2022/04/18 06:24:18;;;;;;;79.32;20.63;;;23.50;40.90;;;;;;5070052;28;20080;-56
2022/04/18 06:26:44;;;;;;;79.60;20.00;;;23.50;41.10;;;;;;5083977;28;20647;-57
2022/04/18 06:29:11;;;;;;;67.65;19.27;;;23.50;41.40;;;;;;5070716;28;20098;-54
2022/04/18 06:31:37;;;;;;;62.92;18.60;;;23.40;41.20;;;;;;5086052;28;20174;-54
2022/04/18 06:34:03;;;;;;;68.65;19.30;;;23.30;41.40;;;;;;5070504;28;20596;-53
2022/04/18 06:36:30;;;;;;;74.45;19.50;;;23.30;41.60;;;;;;5060776;28;20087;-53
2022/04/18 06:38:56;;;;;;;60.47;19.17;;;23.20;41.60;;;;;;5071336;28;20098;-53
2022/04/18 06:41:23;;;;;;;78.10;19.38;;;23.20;41.60;;;;;;5070495;28;20087;-54
2022/04/18 06:43:49;;;;;;;61.65;17.95;;;23.10;41.60;;;;;;5070419;28;20076;-54
2022/04/18 06:46:16;;;;;;;79.20;21.13;;;23.20;42.00;;;;;;5076280;28;20087;-53
2022/04/18 06:48:42;;;;;;;68.35;20.65;;;23.20;42.10;;;;;;5070021;28;20091;-54
2022/04/18 06:51:08;;;;;;;79.10;20.42;;;23.20;42.50;;;;;;5069809;28;20210;-55
2022/04/18 06:53:35;;;;;;;71.22;18.80;;;23.20;41.90;;;;;;5070611;28;20105;-54
2022/04/18 06:58:46;;;;;;;84.18;19.38;;;23.10;42.20;;;;;;5070457;28;20091;-58
2022/04/18 07:01:12;;;;;;;61.75;18.02;;;23.10;42.20;;;;;;5069149;28;20068;-52
2022/04/18 07:03:39;;;;;;;66.28;18.27;;;23.10;41.90;;;;;;5085454;28;20079;-54
2022/04/18 07:06:05;;;;;;;68.90;19.08;;;23.00;41.80;;;;;;5052438;28;20072;-51
2022/04/18 07:08:32;;;;;;;69.47;19.08;;;23.00;41.90;;;;;;5052795;28;20091;-52
2022/04/18 07:10:58;;;;;;;85.45;20.77;;;22.90;42.60;;;;;;5085742;28;20543;-53
2022/04/18 07:13:25;;;;;;;64.35;17.30;;;22.80;41.80;;;;;;5085033;28;20453;-52
2022/04/18 07:15:53;;;;;;;75.18;18.67;;;22.80;42.00;;;;;;5052555;28;20076;-54
2022/04/18 07:18:19;;;;;;;63.78;17.33;;;22.80;42.00;;;;;;5085737;28;20229;-53
2022/04/18 07:20:46;;;;;;;66.70;16.95;;;22.70;41.80;;;;;;5085295;28;20072;-58
2022/04/18 07:23:13;;;;;;;51.60;15.15;;;22.70;41.80;;;;;;5086524;28;20072;-55
2022/04/18 07:25:40;;;;;;;72.32;15.50;;;22.60;41.90;;;;;;5085682;28;20076;-57
2022/04/18 07:28:06;;;;;;;69.75;15.18;;;22.50;42.00;;;;;;5051901;28;20079;-54
2022/04/18 07:30:33;;;;;;;74.32;15.52;;;22.60;42.90;;;;;;5067209;28;20173;-55
2022/04/18 07:32:59;;;;;;;57.65;15.32;;;22.60;43.10;;;;;;5068437;28;20171;-53
2022/04/18 07:35:26;;;;;;;60.85;15.43;;;22.60;42.60;;;;;;5071134;28;20104;-55
2022/04/18 07:40:37;;;;;;;65.00;14.73;;;22.50;42.30;;;;;;5070135;28;20536;-54
2022/04/18 07:43:04;;;;;;;70.25;14.20;;;22.40;42.30;;;;;;5051828;28;20099;-55
2022/04/18 07:45:30;;;;;;;62.42;14.80;;;22.30;42.50;;;;;;5068229;28;20068;-54
2022/04/18 07:47:57;;;;;;;66.50;15.10;;;22.30;42.80;;;;;;5067825;28;20088;-58
2022/04/18 07:51:31;;;;;;;66.57;15.82;;;22.30;42.90;;;;;;5068408;28;20067;-54
2022/04/18 07:53:09;;;;;;;78.93;16.88;;;22.20;43.00;;;;;;5069054;28;20506;-54
2022/04/18 07:55:36;;;;;;;65.57;16.13;;;22.20;43.40;;;;;;5084990;28;20112;-53
2022/04/18 07:58:02;;;;;;;64.53;15.43;;;22.10;43.50;;;;;;5084578;28;20510;-54
2022/04/18 08:00:29;;;;;;;60.70;15.77;;;22.10;43.60;;;;;;5051737;28;20115;-56
2022/04/18 08:02:55;;;;;;;57.08;15.50;;;22.10;43.60;;;;;;5069358;28;20067;-56
2022/04/18 08:05:21;;;;;;;65.88;16.92;;;22.10;43.90;;;;;;5051346;28;20125;-54
2022/04/18 08:07:48;;;;;;;63.10;16.05;;;22.00;44.10;;;;;;5070238;28;20106;-52
2022/04/18 08:10:14;;;;;;;52.75;15.00;;;22.00;44.30;;;;;;5066882;28;20422;-57
2022/04/18 08:12:41;;;;;;;67.22;15.88;;;22.00;44.40;;;;;;5072283;28;20095;-58
2022/04/18 08:15:08;;;;;;;76.95;16.65;;;22.00;44.50;;;;;;5067860;28;20607;-52
2022/04/18 08:17:35;;;;;;;64.95;15.23;;;22.00;44.90;;;;;;5088495;28;20509;-53
2022/04/18 08:20:01;;;;;;;67.80;15.05;;;22.00;45.30;;;;;;5066451;28;20483;-52
2022/04/18 08:22:28;;;;;;;53.63;14.48;;;21.90;44.70;;;;;;5085808;28;20548;-54
2022/04/18 08:24:54;;;;;;;75.35;14.85;;;21.90;44.40;;;;;;5068881;28;20167;-56
2022/04/18 08:27:21;;;;;;;55.10;12.50;;;21.80;44.50;;;;;;5085103;28;20526;-54
2022/04/18 08:29:47;;;;;;;69.30;15.93;;;21.80;44.70;;;;;;5084672;28;20476;-53
2022/04/18 08:32:14;;;;;;;53.45;12.98;;;21.70;45.00;;;;;;5058023;28;20585;-58
2022/04/18 08:34:40;;;;;;;63.30;14.35;;;21.70;44.80;;;;;;5071542;28;20151;-54
2022/04/18 08:37:07;;;;;;;59.55;13.80;;;21.70;44.70;;;;;;5086408;28;20215;-55
2022/04/18 08:39:33;;;;;;;55.33;14.07;;;21.80;45.20;;;;;;5069606;28;20434;-54
2022/04/18 08:42:01;;;;;;;68.65;14.15;;;21.70;44.90;;;;;;5052045;28;20542;-56
2022/04/18 08:44:27;;;;;;;50.80;15.15;;;21.60;45.20;;;;;;5072616;28;20076;-54
2022/04/18 08:46:57;;;;;;;59.58;15.50;;;21.50;45.30;;;;;;5069066;28;20072;-56
2022/04/18 08:54:54;;;;;;;57.85;15.43;;;21.40;45.30;;;;;;5068272;28;20114;-54
2022/04/18 08:57:20;;;;;;;58.58;15.85;;;21.40;45.40;;;;;;5084674;28;20075;-53
2022/04/18 08:59:46;;;;;;;57.45;14.82;;;21.40;45.50;;;;;;5067900;28;20079;-53
2022/04/18 09:02:13;;;;;;;53.90;13.88;;;21.30;46.00;;;;;;5067422;28;20166;-55
2022/04/18 09:04:39;;;;;;;45.58;13.80;;;21.30;45.20;;;;;;5067774;28;20088;-52
2022/04/18 09:07:13;;;;;;;46.28;12.93;;;21.30;44.90;;;;;;5033891;28;20449;-53
2022/04/18 09:09:40;;;;;;;42.47;12.50;;;21.20;44.60;;;;;;5054209;28;20110;-52
2022/04/18 09:12:21;;;;;;;43.30;13.63;;;21.30;44.40;;;;;;5071000;28;20499;-53
2022/04/18 09:14:51;;;;;;;32.50;11.25;;;21.30;44.10;;;;;;5054099;28;20545;-56
2022/04/18 09:17:36;;;;;;;48.25;10.60;;;21.30;43.70;;;;;;5070947;28;20076;-54
2022/04/18 09:20:13;;;;;;;40.67;10.10;;;21.30;43.40;;;;;;5070029;28;20072;-56
2022/04/18 09:22:48;;;;;;;29.48;9.43;;;21.40;43.60;;;;;;5086591;28;20117;-54
2022/04/18 09:25:22;;;;;;;32.03;9.70;;;21.40;43.50;;;;;;5070661;28;20475;-55
2022/04/18 09:27:58;;;;;;;34.30;8.35;;;21.30;43.40;;;;;;5087450;28;20088;-54
2022/04/18 09:30:30;;;;;;;28.67;7.10;;;21.30;43.20;;;;;;5070628;28;20071;-54
2022/04/18 09:33:02;;;;;;;33.55;8.40;;;21.20;43.20;;;;;;5069614;28;20749;-55
2022/04/18 09:35:29;;;;;;;24.98;7.47;;;21.20;43.40;;;;;;5055916;28;20174;-55
2022/04/18 09:38:08;;;;;;;29.55;7.93;;;21.10;43.40;;;;;;5074790;28;20084;-57
2022/04/18 09:40:37;;;;;;;36.45;7.50;;;21.10;43.30;;;;;;5053906;28;20414;-54
2022/04/18 09:43:03;;;;;;;23.42;6.80;;;21.10;43.40;;;;;;5070685;28;20125;-56
2022/04/18 09:45:30;;;;;;;29.58;7.43;;;21.10;42.90;;;;;;5053875;28;20083;-53
2022/04/18 09:48:03;;;;;;;22.58;7.07;;;21.10;42.70;;;;;;5053755;28;20839;-54
2022/04/18 09:53:22;;;;;;;32.78;6.93;;;21.10;42.50;;;;;;5072252;28;20078;-57
2022/04/18 09:55:52;;;;;;;38.40;7.13;;;21.10;42.30;;;;;;5070227;28;20091;-56
2022/04/18 09:58:19;;;;;;;22.83;6.43;;;21.00;41.80;;;;;;5069315;28;20086;-53
2022/04/18 10:00:47;;;;;;;22.27;5.82;;;21.00;41.30;;;;;;5069875;28;20075;-53
2022/04/18 10:03:13;;;;;;;21.55;5.80;;;21.00;40.50;;;;;;5087020;28;20099;-54
2022/04/18 10:05:41;;;;;;;22.40;5.70;;;21.10;39.80;;;;;;5053608;28;20117;-55
2022/04/18 10:08:07;;;;;;;18.38;5.35;;;21.10;39.10;;;;;;5089546;28;20075;-53
2022/04/18 10:10:41;;;;;;;24.98;5.85;;;21.20;38.30;;;;;;5052166;28;20157;-53
2022/04/18 10:13:08;;;;;;;23.95;4.50;;;21.10;37.80;;;;;;5069811;28;20091;-55
2022/04/18 10:15:36;;;;;;;13.88;4.35;;;21.10;37.50;;;;;;5086637;28;20080;-56
2022/04/18 10:18:05;;;;;;;16.88;4.10;;;21.10;37.30;;;;;;5069986;28;20091;-57
2022/04/18 10:20:52;;;;;;;20.55;4.25;;;21.20;37.00;;;;;;5068091;28;20461;-55
2022/04/18 10:23:47;;;;;;;16.50;4.28;;;21.10;37.10;;;;;;5087497;28;20106;-57
2022/04/18 10:26:28;;;;;;;15.02;4.30;;;21.00;37.40;;;;;;5070656;28;20089;-57
2022/04/18 10:28:56;;;;;;;20.85;4.93;;;21.00;37.50;;;;;;5086699;28;20221;-57
2022/04/18 10:31:32;;;;;;;26.48;5.57;;;20.90;37.70;;;;;;5069532;28;20082;-54
2022/04/18 10:33:59;;;;;;;20.40;5.55;;;20.80;38.00;;;;;;5069392;28;20103;-52
2022/04/18 10:36:27;;;;;;;16.50;5.60;;;20.80;38.10;;;;;;5095414;28;20142;-54
2022/04/18 10:38:56;;;;;;;29.75;6.60;;;20.80;38.20;;;;;;5079524;28;20532;-57
2022/04/18 10:41:40;;;;;;;17.58;5.32;;;20.80;38.10;;;;;;5086138;28;20129;-52
2022/04/18 10:44:14;;;;;;;22.13;4.35;;;20.80;37.90;;;;;;5086271;28;20521;-54
2022/04/18 10:46:53;;;;;;;12.93;4.22;;;20.80;37.40;;;;;;5053002;28;20072;-54
2022/04/18 10:49:24;;;;;;;20.27;3.78;;;20.80;37.20;;;;;;5070141;28;20082;-53
2022/04/18 10:51:53;;;;;;;12.57;3.10;;;20.80;37.10;;;;;;5069224;28;20075;-53
2022/04/18 10:54:23;;;;;;;11.40;3.08;;;20.80;37.10;;;;;;5070743;28;20430;-53
2022/04/18 10:57:01;;;;;;;16.05;3.33;;;20.80;37.00;;;;;;5068678;28;20122;-58
2022/04/18 10:59:34;;;;;;;18.95;3.25;;;20.90;37.00;;;;;;5053078;28;20072;-56
2022/04/18 11:02:03;;;;;;;15.73;3.17;;;20.90;37.10;;;;;;5069217;28;20133;-55
2022/04/18 11:04:52;;;;;;;10.80;2.47;;;20.90;37.10;;;;;;5070019;28;20078;-56
2022/04/18 11:07:19;;;;;;;8.93;2.33;;;20.90;37.20;;;;;;5068645;28;20080;-57
2022/04/18 11:09:48;;;;;;;18.98;2.25;;;20.90;37.40;;;;;;5075108;28;20105;-55
2022/04/18 11:12:20;;;;;;;13.30;2.97;;;20.90;38.40;;;;;;5068890;28;20441;-56
2022/04/18 11:14:53;;;;;;;19.35;2.72;;;20.90;38.10;;;;;;5066778;28;20453;-55
2022/04/18 11:17:29;;;;;;;14.60;2.65;;;20.90;38.20;;;;;;5052546;28;20182;-57
2022/04/18 11:19:56;;;;;;;13.25;3.03;;;20.80;38.60;;;;;;5051807;28;20162;-55
2022/04/18 11:22:24;;;;;;;16.02;2.60;;;20.80;39.00;;;;;;5070529;28;20068;-55
2022/04/18 11:24:56;;;;;;;9.20;2.30;;;20.80;39.30;;;;;;5070539;28;20072;-56
2022/04/18 11:27:27;;;;;;;10.48;2.17;;;20.80;39.60;;;;;;5085651;28;20129;-54
2022/04/18 11:30:13;;;;;;;7.78;2.30;;;20.80;39.70;;;;;;5085455;28;20155;-53
2022/04/18 11:32:42;;;;;;;7.83;2.53;;;20.80;39.80;;;;;;5069308;28;20159;-57
2022/04/18 11:35:10;;;;;;;20.98;2.53;;;20.80;39.80;;;;;;5067209;28;20349;-56
2022/04/18 11:37:45;;;;;;;16.33;3.05;;;20.80;39.80;;;;;;5085026;28;20072;-52
2022/04/18 11:40:14;;;;;;;13.70;2.13;;;20.70;40.00;;;;;;5068536;28;20095;-55
2022/04/18 11:42:42;;;;;;;19.02;2.50;;;20.70;40.00;;;;;;5052229;28;20072;-55
2022/04/18 11:45:10;;;;;;;18.77;2.47;;;20.70;40.00;;;;;;5070058;28;20063;-54
2022/04/18 11:47:47;;;;;;;10.15;2.10;;;20.60;40.10;;;;;;5088191;28;20072;-55
2022/04/18 11:50:15;;;;;;;;;;;20.60;40.20;;;;;;5068656;28;20068;-55
2022/04/18 11:52:42;;;;;;;16.48;2.35;;;20.60;40.70;;;;;;5068618;28;19956;-54
2022/04/18 11:55:15;;;;;;;17.13;2.25;;;20.50;41.10;;;;;;5051997;28;20080;-55
2022/04/18 11:57:49;;;;;;;24.25;2.67;;;20.40;41.10;;;;;;5068754;28;20171;-59
2022/04/18 12:06:44;;;;;;;11.77;2.38;;;20.40;41.50;;;;;;5067849;28;20080;-51
2022/04/18 12:08:48;;;;;;;10.75;2.20;;;20.10;41.70;;;;;;5076811;28;20809;-55
2022/04/18 12:11:15;;;;;;;20.25;3.03;;;20.10;42.10;;;;;;5045839;28;20080;-52
2022/04/18 12:13:47;;;;;;;16.95;2.88;;;20.00;42.80;;;;;;5068198;28;20123;-57
2022/04/18 12:16:17;;;;;;;16.95;2.90;;;20.10;43.10;;;;;;5052078;28;20102;-55
2022/04/18 12:18:44;;;;;;;23.58;2.92;;;20.00;42.90;;;;;;5069201;28;20060;-54
2022/04/18 12:21:14;;;;;;;20.55;2.92;;;20.00;42.90;;;;;;5084380;28;20072;-55
2022/04/18 12:23:41;;;;;;;13.73;2.60;;;19.80;42.30;;;;;;5085473;28;20438;-55
2022/04/18 12:26:12;;;;;;;15.55;2.85;;;19.70;42.90;;;;;;5069430;28;20143;-52
2022/04/18 12:28:38;;;;;;;15.52;2.65;;;19.70;43.70;;;;;;5069986;28;20091;-55
2022/04/18 12:31:12;;;;;;;15.27;2.45;;;19.70;44.00;;;;;;5067775;28;20131;-55
2022/04/18 12:33:49;;;;;;;19.33;3.10;;;19.60;44.10;;;;;;5067886;28;20508;-54
2022/04/18 12:36:25;;;;;;;20.77;2.70;;;19.60;44.60;;;;;;5051167;28;20089;-55
2022/04/18 12:38:52;;;;;;;16.55;2.90;;;19.50;44.70;;;;;;5084881;28;20074;-56
2022/04/18 12:41:33;;;;;;;19.98;3.25;;;19.40;44.90;;;;;;5068059;28;20442;-53
2022/04/18 12:44:00;;;;;;;25.10;4.07;;;19.40;44.30;;;;;;5069640;28;20077;-53
2022/04/18 12:46:31;;;;;;;24.73;3.33;;;19.30;44.80;;;;;;5088662;28;20535;-54
2022/04/18 12:49:03;;;;;;;17.92;2.70;;;19.20;44.50;;;;;;5072770;28;20082;-56
2022/04/18 12:51:38;;;;;;;18.50;2.97;;;19.20;44.90;;;;;;5071740;28;20456;-56
2022/04/18 12:54:17;;;;;;;16.85;3.25;;;19.20;45.50;;;;;;5072239;28;20095;-54
2022/04/18 12:56:47;;;;;;;19.13;3.35;;;19.20;45.60;;;;;;5071519;28;20124;-55
2022/04/18 12:59:21;;;;;;;22.95;3.60;;;19.10;45.90;;;;;;5038606;28;20072;-54
2022/04/18 13:01:47;;;;;;;24.52;3.60;;;19.00;46.00;;;;;;5071396;28;20115;-58
2022/04/18 13:04:26;;;;;;;26.25;3.60;;;19.10;46.10;;;;;;5088041;28;20118;-55
2022/04/18 13:07:05;;;;;;;20.58;4.00;;;19.00;45.80;;;;;;5072595;28;20067;-55